createdAt,value
2022-08-31T00:02:38.994Z,101697.69
2022-08-31T00:05:10.766Z,101693.25
2022-08-31T00:07:41.307Z,101693.22
2022-08-31T00:10:18.655Z,101695.84
2022-08-31T00:12:51.740Z,101695.00
2022-08-31T00:15:30.074Z,101696.72
2022-08-31T00:18:02.559Z,101702.75
2022-08-31T00:20:34.818Z,101705.28
2022-08-31T00:23:05.304Z,101679.25
2022-08-31T00:25:35.683Z,101680.94
2022-08-31T00:28:06.239Z,101697.34
2022-08-31T00:30:37.827Z,101699.09
2022-08-31T00:33:11.660Z,101696.47
2022-08-31T00:35:43.448Z,101693.84
2022-08-31T00:38:14.390Z,101694.75
2022-08-31T00:40:48.014Z,101688.84
2022-08-31T00:43:39.774Z,101699.09
2022-08-31T00:46:10.511Z,101703.34
2022-08-31T00:48:47.419Z,101683.50
2022-08-31T00:51:18.899Z,101665.25
2022-08-31T00:53:48.914Z,101706.66
2022-08-31T00:56:21.489Z,101693.56
2022-08-31T00:58:54.393Z,101689.31
2022-08-31T01:01:25.923Z,101692.75
2022-08-31T01:03:58.201Z,101673.72
2022-08-31T01:06:28.141Z,101691.03
2022-08-31T01:09:00.613Z,101691.00
2022-08-31T01:11:31.219Z,101662.38
2022-08-31T01:14:01.241Z,101677.97
2022-08-31T01:16:36.217Z,101691.69
2022-08-31T01:19:14.606Z,101686.63
2022-08-31T01:21:50.234Z,101692.75
2022-08-31T01:24:23.859Z,101695.28
2022-08-31T01:26:56.041Z,101694.41
2022-08-31T01:29:26.178Z,101696.03
2022-08-31T01:31:56.872Z,101696.78
2022-08-31T01:34:27.218Z,101694.28
2022-08-31T01:36:57.371Z,101682.97
2022-08-31T01:39:30.038Z,101696.81
2022-08-31T01:42:00.085Z,101688.13
2022-08-31T01:44:30.848Z,101689.03
2022-08-31T01:47:00.689Z,101695.91
2022-08-31T01:49:31.421Z,101687.44
2022-08-31T01:52:01.097Z,101694.25
2022-08-31T01:54:33.606Z,101700.31
2022-08-31T01:57:04.000Z,101689.00
2022-08-31T01:59:50.964Z,101697.66
2022-08-31T02:02:41.995Z,101699.38
2022-08-31T02:05:14.554Z,101707.94
2022-08-31T02:07:47.034Z,101702.72
2022-08-31T02:10:19.525Z,101703.66
2022-08-31T02:12:49.179Z,101698.50
2022-08-31T02:15:19.607Z,101706.28
2022-08-31T02:17:49.474Z,101702.88
2022-08-31T02:20:22.855Z,101712.22
2022-08-31T02:22:53.261Z,101701.66
2022-08-31T02:25:25.529Z,101706.03
2022-08-31T02:27:55.190Z,101711.97
2022-08-31T02:30:24.962Z,101715.25
2022-08-31T02:32:54.665Z,101698.72
2022-08-31T02:35:24.595Z,101713.97
2022-08-31T02:37:54.305Z,101706.13
2022-08-31T02:40:26.747Z,101713.25
2022-08-31T02:42:56.953Z,101706.31
2022-08-31T02:45:29.587Z,101695.88
2022-08-31T02:48:08.073Z,101714.94
2022-08-31T02:50:42.246Z,101708.91
2022-08-31T02:53:13.193Z,101712.38
2022-08-31T02:55:46.264Z,101689.81
2022-08-31T02:58:20.650Z,101701.16
2022-08-31T03:00:53.664Z,101701.03
2022-08-31T03:03:24.192Z,101695.81
2022-08-31T03:05:53.921Z,101658.22
2022-08-31T03:08:23.629Z,101694.50
2022-08-31T03:10:56.829Z,101693.56
2022-08-31T03:13:26.581Z,101696.84
2022-08-31T03:15:56.361Z,101702.66
2022-08-31T03:18:26.071Z,101700.97
2022-08-31T03:20:55.752Z,101686.28
2022-08-31T03:23:25.561Z,101701.88
2022-08-31T03:25:58.812Z,101680.34
2022-08-31T03:28:28.645Z,101695.16
2022-08-31T03:31:21.469Z,101650.25
2022-08-31T03:33:51.450Z,101679.59
2022-08-31T03:36:21.372Z,101688.00
2022-08-31T03:38:51.053Z,101689.97
2022-08-31T03:41:27.098Z,101682.94
2022-08-31T03:43:58.043Z,101688.97
2022-08-31T03:46:27.771Z,101691.50
2022-08-31T03:48:58.095Z,101691.47
2022-08-31T03:51:27.982Z,101694.94
2022-08-31T03:53:57.960Z,101701.75
2022-08-31T03:56:30.915Z,101699.97
2022-08-31T03:59:00.778Z,101699.72
2022-08-31T04:01:50.502Z,101692.59
2022-08-31T04:04:39.076Z,101700.31
2022-08-31T04:07:27.303Z,101696.78
2022-08-31T04:10:31.115Z,101678.59
2022-08-31T04:13:28.016Z,101700.97
2022-08-31T04:16:20.322Z,101706.16
2022-08-31T04:19:11.585Z,101701.72
2022-08-31T04:21:50.209Z,101703.38
2022-08-31T04:24:20.154Z,101700.78
2022-08-31T04:26:54.355Z,101689.50
2022-08-31T04:29:26.627Z,101702.09
2022-08-31T04:31:56.756Z,101714.06
2022-08-31T04:34:26.778Z,101709.06
2022-08-31T04:36:56.495Z,101712.50
2022-08-31T04:39:26.182Z,101722.91
2022-08-31T04:42:02.673Z,101718.69
2022-08-31T04:44:37.265Z,101725.47
2022-08-31T04:47:08.262Z,101724.47
2022-08-31T04:49:38.045Z,101726.97
2022-08-31T04:52:08.373Z,101666.25
2022-08-31T04:54:38.236Z,101725.09
2022-08-31T04:57:08.346Z,101727.56
2022-08-31T04:59:40.673Z,101731.75
2022-08-31T05:02:30.473Z,101728.34
2022-08-31T05:05:06.189Z,101704.03
2022-08-31T05:07:38.044Z,101733.97
2022-08-31T05:10:09.425Z,101734.19
2022-08-31T05:12:39.288Z,101742.44
2022-08-31T05:15:12.632Z,101749.59
2022-08-31T05:17:42.328Z,101739.03
2022-08-31T05:20:13.448Z,101745.09
2022-08-31T05:22:43.589Z,101749.59
2022-08-31T05:25:13.728Z,101746.06
2022-08-31T05:27:44.074Z,101745.91
2022-08-31T05:30:18.059Z,101728.50
2022-08-31T05:33:02.521Z,101751.25
2022-08-31T05:35:32.727Z,101720.88
2022-08-31T05:38:02.423Z,101738.91
2022-08-31T05:40:32.207Z,101758.06
2022-08-31T05:43:02.155Z,101758.13
2022-08-31T05:45:34.875Z,101732.13
2022-08-31T05:48:04.675Z,101772.88
2022-08-31T05:50:38.975Z,101772.34
2022-08-31T05:53:09.943Z,101777.72
2022-08-31T05:55:39.748Z,101779.91
2022-08-31T05:58:10.075Z,101779.28
2022-08-31T06:00:43.471Z,101782.72
2022-08-31T06:03:35.159Z,101755.94
2022-08-31T06:06:08.676Z,101779.19
2022-08-31T06:08:39.145Z,101776.72
2022-08-31T06:11:13.748Z,101782.53
2022-08-31T06:13:43.664Z,101779.00
2022-08-31T06:16:18.073Z,101772.53
2022-08-31T06:18:51.033Z,101777.94
2022-08-31T06:21:24.059Z,101777.38
2022-08-31T06:23:57.226Z,101769.72
2022-08-31T06:26:30.357Z,101784.72
2022-08-31T06:29:09.247Z,101784.63
2022-08-31T06:31:47.590Z,101783.09
2022-08-31T06:34:23.517Z,101784.09
2022-08-31T06:36:55.854Z,101788.06
2022-08-31T06:39:54.981Z,101788.94
2022-08-31T06:42:38.143Z,101788.56
2022-08-31T06:45:32.411Z,101791.72
2022-08-31T06:48:28.262Z,101792.22
2022-08-31T06:51:02.373Z,101787.44
2022-08-31T06:53:32.686Z,101780.66
2022-08-31T06:56:23.061Z,101771.34
2022-08-31T06:59:12.223Z,101782.56
2022-08-31T07:02:03.856Z,101793.78
2022-08-31T07:04:39.324Z,101796.66
2022-08-31T07:07:11.685Z,101795.03
2022-08-31T07:09:44.336Z,101802.97
2022-08-31T07:12:14.840Z,101801.13
2022-08-31T07:14:55.025Z,101799.47
2022-08-31T07:17:26.019Z,101803.88
2022-08-31T07:19:58.320Z,101797.16
2022-08-31T07:22:28.906Z,101805.03
2022-08-31T07:25:12.331Z,101801.81
2022-08-31T07:27:42.042Z,101800.25
2022-08-31T07:30:13.291Z,101797.94
2022-08-31T07:32:43.186Z,101786.69
2022-08-31T07:35:15.507Z,101804.94
2022-08-31T07:38:14.089Z,101810.25
2022-08-31T07:40:56.451Z,101804.31
2022-08-31T07:43:28.208Z,101787.19
2022-08-31T07:46:01.577Z,101792.47
2022-08-31T07:48:33.362Z,101808.03
2022-08-31T07:51:26.486Z,101798.59
2022-08-31T07:54:20.281Z,101801.41
2022-08-31T07:57:04.497Z,101810.97
2022-08-31T07:59:37.298Z,101806.75
2022-08-31T08:02:07.551Z,101823.91
2022-08-31T08:04:43.166Z,101811.09
2022-08-31T08:07:18.931Z,101818.84
2022-08-31T08:09:57.540Z,101818.84
2022-08-31T08:12:48.583Z,101815.44
2022-08-31T08:15:48.701Z,101819.78
2022-08-31T08:18:46.856Z,101810.28
2022-08-31T08:21:23.709Z,101821.44
2022-08-31T08:23:56.817Z,101818.91
2022-08-31T08:26:58.603Z,101831.84
2022-08-31T08:29:56.214Z,101827.56
2022-08-31T08:32:31.523Z,101825.88
2022-08-31T08:35:01.457Z,101817.34
2022-08-31T08:37:56.685Z,101813.94
2022-08-31T08:40:37.278Z,101832.97
2022-08-31T08:43:08.310Z,101833.88
2022-08-31T08:45:38.388Z,101775.94
2022-08-31T08:48:12.779Z,101834.72
2022-08-31T08:50:45.024Z,101820.91
2022-08-31T08:53:28.609Z,101830.38
2022-08-31T08:56:32.834Z,101829.50
2022-08-31T08:59:07.318Z,101831.19
2022-08-31T09:01:39.843Z,101832.16
2022-08-31T09:04:18.381Z,101821.78
2022-08-31T09:07:21.169Z,101838.25
2022-08-31T09:10:02.662Z,101829.66
2022-08-31T09:12:49.155Z,101822.81
2022-08-31T09:15:36.683Z,101831.38
2022-08-31T09:18:18.765Z,101827.09
2022-08-31T09:21:20.891Z,101834.91
2022-08-31T09:24:01.656Z,101835.78
2022-08-31T09:26:54.411Z,101842.69
2022-08-31T09:29:45.170Z,101824.56
2022-08-31T09:32:24.472Z,101834.06
2022-08-31T09:34:59.098Z,101823.66
2022-08-31T09:37:33.681Z,101832.34
2022-08-31T09:40:23.245Z,101827.13
2022-08-31T09:43:05.958Z,101803.81
2022-08-31T09:45:42.671Z,101822.81
2022-08-31T09:48:13.829Z,101818.50
2022-08-31T09:50:47.567Z,101827.94
2022-08-31T09:53:34.260Z,101824.47
2022-08-31T09:56:17.624Z,101821.00
2022-08-31T09:58:50.943Z,101821.88
2022-08-31T10:01:38.758Z,101808.88
2022-08-31T10:04:20.103Z,101822.59
2022-08-31T10:06:57.822Z,101818.16
2022-08-31T10:09:37.309Z,101815.47
2022-08-31T10:12:12.407Z,101817.28
2022-08-31T10:14:50.697Z,101817.31
2022-08-31T10:17:32.194Z,101816.31
2022-08-31T10:20:09.890Z,101804.97
2022-08-31T10:22:42.753Z,101815.28
2022-08-31T10:25:26.917Z,101811.00
2022-08-31T10:28:01.695Z,101803.16
2022-08-31T10:30:37.858Z,101811.75
2022-08-31T10:33:16.221Z,101797.09
2022-08-31T10:35:55.138Z,101804.81
2022-08-31T10:38:33.247Z,101803.88
2022-08-31T10:41:12.635Z,101746.94
2022-08-31T10:43:49.118Z,101793.50
2022-08-31T10:46:20.609Z,101802.00
2022-08-31T10:48:55.165Z,101794.22
2022-08-31T10:51:33.109Z,101794.22
2022-08-31T10:54:17.015Z,101783.81
2022-08-31T10:56:59.392Z,101771.94
2022-08-31T10:59:38.537Z,101789.16
2022-08-31T11:02:33.683Z,101783.00
2022-08-31T11:05:27.085Z,101782.94
2022-08-31T11:08:04.640Z,101776.94
2022-08-31T11:10:49.897Z,101793.34
2022-08-31T11:13:38.506Z,101781.28
2022-08-31T11:16:27.127Z,101784.69
2022-08-31T11:19:22.630Z,101789.03
2022-08-31T11:22:37.726Z,101776.91
2022-08-31T11:25:37.782Z,101767.41
2022-08-31T11:28:12.095Z,101749.34
2022-08-31T11:30:50.978Z,101776.06
2022-08-31T11:33:31.288Z,101762.06
2022-08-31T11:36:07.384Z,101762.88
2022-08-31T11:39:36.125Z,101763.50
2022-08-31T11:42:13.289Z,101759.91
2022-08-31T11:45:06.510Z,101753.81
2022-08-31T11:47:41.683Z,101753.00
2022-08-31T11:50:30.649Z,101745.22
2022-08-31T11:53:02.415Z,101752.16
2022-08-31T11:55:38.001Z,101746.72
2022-08-31T11:58:35.471Z,101749.03
2022-08-31T12:01:30.819Z,101750.47
2022-08-31T12:04:03.943Z,101744.56
2022-08-31T12:07:02.163Z,101742.59
2022-08-31T12:09:55.485Z,101734.91
2022-08-31T12:12:42.848Z,101737.47
2022-08-31T12:15:23.694Z,101732.44
2022-08-31T12:18:06.331Z,101722.78
2022-08-31T12:21:08.948Z,101728.59
2022-08-31T12:23:47.145Z,101729.34
2022-08-31T12:26:36.348Z,101722.47
2022-08-31T12:29:22.696Z,101712.25
2022-08-31T12:32:11.859Z,101714.69
2022-08-31T12:34:48.659Z,101705.16
2022-08-31T12:37:28.277Z,101715.50
2022-08-31T12:40:18.182Z,101714.75
2022-08-31T12:43:08.455Z,101714.53
2022-08-31T12:46:16.617Z,101722.94
2022-08-31T12:49:12.084Z,101715.97
2022-08-31T12:51:47.115Z,101709.88
2022-08-31T12:54:50.513Z,101712.91
2022-08-31T12:57:45.056Z,101712.06
2022-08-31T13:00:26.129Z,101712.28
2022-08-31T13:02:58.756Z,101713.38
2022-08-31T13:05:32.954Z,101699.38
2022-08-31T13:08:22.420Z,101709.81
2022-08-31T13:10:53.366Z,101688.19
2022-08-31T13:13:26.099Z,101695.69
2022-08-31T13:16:04.707Z,101694.44
2022-08-31T13:18:37.246Z,101670.19
2022-08-31T13:21:11.061Z,101692.75
2022-08-31T13:23:48.789Z,101678.72
2022-08-31T13:26:23.797Z,101658.78
2022-08-31T13:28:55.533Z,101688.09
2022-08-31T13:31:27.568Z,101677.75
2022-08-31T13:34:03.055Z,101671.06
2022-08-31T13:36:39.626Z,101666.53
2022-08-31T13:39:18.015Z,101668.81
2022-08-31T13:41:59.099Z,101670.94
2022-08-31T13:44:33.827Z,101667.31
2022-08-31T13:47:07.078Z,101672.25
2022-08-31T13:49:40.746Z,101663.31
2022-08-31T13:52:21.890Z,101630.78
2022-08-31T13:55:01.964Z,101669.06
2022-08-31T13:57:34.850Z,101647.03
2022-08-31T14:00:27.839Z,101652.97
2022-08-31T14:03:01.800Z,101661.56
2022-08-31T14:05:36.257Z,101669.16
2022-08-31T14:08:10.123Z,101666.47
2022-08-31T14:10:46.318Z,101646.91
2022-08-31T14:13:25.226Z,101658.88
2022-08-31T14:15:58.813Z,101657.75
2022-08-31T14:18:31.351Z,101615.75
2022-08-31T14:21:23.505Z,101620.97
2022-08-31T14:24:01.702Z,101597.28
2022-08-31T14:26:35.094Z,101643.22
2022-08-31T14:29:10.546Z,101646.66
2022-08-31T14:31:46.981Z,101645.22
2022-08-31T14:34:24.815Z,101638.19
2022-08-31T14:37:04.129Z,101639.06
2022-08-31T14:39:38.969Z,101632.84
2022-08-31T14:42:11.797Z,101643.91
2022-08-31T14:44:45.871Z,101583.63
2022-08-31T14:47:15.595Z,101627.44
2022-08-31T14:49:45.572Z,101633.19
2022-08-31T14:52:16.279Z,101635.63
2022-08-31T14:54:48.951Z,101609.78
2022-08-31T14:57:25.340Z,101621.91
2022-08-31T14:59:58.193Z,101615.06
2022-08-31T15:02:31.706Z,101619.28
2022-08-31T15:05:04.770Z,101633.13
2022-08-31T15:07:36.541Z,101632.50
2022-08-31T15:10:13.231Z,101630.59
2022-08-31T15:12:48.594Z,101621.81
2022-08-31T15:15:20.967Z,101617.75
2022-08-31T15:17:52.965Z,101623.38
2022-08-31T15:20:23.374Z,101603.63
2022-08-31T15:22:53.406Z,101616.63
2022-08-31T15:25:26.339Z,101621.63
2022-08-31T15:27:56.789Z,101613.66
2022-08-31T15:30:26.567Z,101619.13
2022-08-31T15:33:01.456Z,101573.44
2022-08-31T15:35:31.904Z,101618.34
2022-08-31T15:38:06.534Z,101597.78
2022-08-31T15:40:40.053Z,101608.97
2022-08-31T15:43:15.482Z,101606.91
2022-08-31T15:45:45.233Z,101602.31
2022-08-31T15:48:28.574Z,101610.38
2022-08-31T15:51:01.341Z,101568.59
2022-08-31T15:53:35.589Z,101609.81
2022-08-31T15:56:12.246Z,101604.38
2022-08-31T15:58:44.163Z,101615.94
2022-08-31T16:01:16.970Z,101601.34
2022-08-31T16:03:52.810Z,101605.00
2022-08-31T16:06:25.918Z,101594.56
2022-08-31T16:08:55.997Z,101596.22
2022-08-31T16:11:30.835Z,101576.34
2022-08-31T16:14:02.882Z,101573.81
2022-08-31T16:16:34.917Z,101568.69
2022-08-31T16:19:08.888Z,101580.50
2022-08-31T16:21:45.607Z,101576.31
2022-08-31T16:24:18.477Z,101585.09
2022-08-31T16:26:57.694Z,101577.34
2022-08-31T16:29:29.760Z,101581.63
2022-08-31T16:32:00.250Z,101572.94
2022-08-31T16:34:32.467Z,101574.75
2022-08-31T16:37:07.402Z,101572.25
2022-08-31T16:39:37.899Z,101571.25
2022-08-31T16:42:12.240Z,101577.38
2022-08-31T16:44:46.044Z,101580.84
2022-08-31T16:47:17.095Z,101569.94
2022-08-31T16:49:44.880Z,101572.66
2022-08-31T16:52:18.267Z,101570.81
2022-08-31T16:54:52.082Z,101588.06
2022-08-31T16:57:27.404Z,101581.03
2022-08-31T16:59:58.528Z,101587.09
2022-08-31T17:02:28.619Z,101575.84
2022-08-31T17:05:04.652Z,101565.59
2022-08-31T17:07:35.617Z,101580.44
2022-08-31T17:10:06.677Z,101579.22
2022-08-31T17:12:42.220Z,101571.31
2022-08-31T17:15:16.408Z,101569.84
2022-08-31T17:17:48.115Z,101566.38
2022-08-31T17:20:19.452Z,101586.31
2022-08-31T17:22:51.543Z,101570.84
2022-08-31T17:25:24.742Z,101585.66
2022-08-31T17:27:59.921Z,101591.03
2022-08-31T17:30:32.360Z,101578.81
2022-08-31T17:33:02.189Z,101590.94
2022-08-31T17:35:32.075Z,101588.28
2022-08-31T17:38:03.350Z,101597.03
2022-08-31T17:40:33.226Z,101595.28
2022-08-31T17:43:05.600Z,101597.88
2022-08-31T17:45:38.422Z,101601.38
2022-08-31T17:48:11.875Z,101596.38
2022-08-31T17:50:44.961Z,101597.31
2022-08-31T17:53:15.737Z,101600.94
2022-08-31T17:55:45.529Z,101602.66
2022-08-31T17:58:18.991Z,101596.66
2022-08-31T18:00:50.798Z,101553.63
2022-08-31T18:03:22.679Z,101586.34
2022-08-31T18:05:52.471Z,101583.91
2022-08-31T18:08:26.531Z,101609.06
2022-08-31T18:10:56.676Z,101592.78
2022-08-31T18:13:31.051Z,101609.94
2022-08-31T18:16:03.264Z,101615.19
2022-08-31T18:18:34.224Z,101604.16
2022-08-31T18:21:08.333Z,101613.63
2022-08-31T18:23:38.089Z,101618.97
2022-08-31T18:26:21.253Z,101618.09
2022-08-31T18:28:55.049Z,101625.94
2022-08-31T18:31:30.648Z,101626.81
2022-08-31T18:34:00.971Z,101619.19
2022-08-31T18:36:38.824Z,101626.97
2022-08-31T18:39:10.663Z,101623.38
2022-08-31T18:41:53.225Z,101635.41
2022-08-31T18:44:38.476Z,101634.72
2022-08-31T18:47:11.326Z,101624.44
2022-08-31T18:49:44.793Z,101641.72
2022-08-31T18:52:19.624Z,101635.75
2022-08-31T18:54:51.957Z,101629.81
2022-08-31T18:57:24.977Z,101656.66
2022-08-31T19:00:02.569Z,101646.31
2022-08-31T19:02:39.912Z,101641.22
2022-08-31T19:05:11.885Z,101643.00
2022-08-31T19:07:42.120Z,101650.00
2022-08-31T19:10:15.495Z,101644.88
2022-08-31T19:12:45.767Z,101651.81
2022-08-31T19:15:19.687Z,101656.13
2022-08-31T19:17:50.533Z,101643.19
2022-08-31T19:20:20.557Z,101649.28
2022-08-31T19:22:50.354Z,101649.28
2022-08-31T19:25:20.890Z,101643.25
2022-08-31T19:27:51.415Z,101644.16
2022-08-31T19:30:28.045Z,101625.16
2022-08-31T19:32:58.919Z,101636.38
2022-08-31T19:35:28.652Z,101638.94
2022-08-31T19:37:58.447Z,101647.59
2022-08-31T19:40:38.441Z,101615.69
2022-08-31T19:46:16.206Z,101651.03
2022-08-31T19:48:46.934Z,101664.81
2022-08-31T19:51:18.765Z,101660.53
2022-08-31T19:53:50.597Z,101670.00
2022-08-31T19:56:23.394Z,101670.03
2022-08-31T19:58:56.961Z,101656.22
2022-08-31T20:01:32.965Z,101638.97
2022-08-31T20:04:04.598Z,101665.69
2022-08-31T20:06:34.809Z,101664.00
2022-08-31T20:09:05.624Z,101667.41
2022-08-31T20:11:37.685Z,101665.69
2022-08-31T20:14:08.249Z,101671.72
2022-08-31T20:16:43.242Z,101666.53
2022-08-31T20:19:18.904Z,101667.34
2022-08-31T20:21:53.023Z,101672.53
2022-08-31T20:24:25.113Z,101669.03
2022-08-31T20:27:00.010Z,101669.00
2022-08-31T20:29:30.398Z,101653.41
2022-08-31T20:32:08.174Z,101615.38
2022-08-31T20:34:38.686Z,101680.09
2022-08-31T20:37:08.896Z,101680.09
2022-08-31T20:39:39.461Z,101674.03
2022-08-31T20:42:09.763Z,101678.38
2022-08-31T20:44:40.535Z,101625.63
2022-08-31T20:47:26.553Z,101677.44
2022-08-31T20:49:58.758Z,101658.41
2022-08-31T20:52:32.188Z,101689.47
2022-08-31T20:55:03.341Z,101684.31
2022-08-31T20:57:36.449Z,101673.94
2022-08-31T21:00:10.445Z,101630.66
2022-08-31T21:02:47.085Z,101679.84
2022-08-31T21:08:07.948Z,101684.88
2022-08-31T21:10:40.294Z,101654.66
2022-08-31T21:13:12.960Z,101667.59
2022-08-31T21:15:44.996Z,101682.22
2022-08-31T21:18:19.350Z,101672.72
2022-08-31T21:20:51.610Z,101678.78
2022-08-31T21:23:23.027Z,101684.00
2022-08-31T21:25:52.702Z,101689.13
2022-08-31T21:28:22.362Z,101681.31
2022-08-31T21:30:53.057Z,101672.69
2022-08-31T21:33:26.353Z,101678.78
2022-08-31T21:36:04.418Z,101688.28
2022-08-31T21:38:34.319Z,101689.06
2022-08-31T21:41:04.727Z,101691.63
2022-08-31T21:43:35.327Z,101678.63
2022-08-31T21:46:08.784Z,101664.75
2022-08-31T21:48:44.516Z,101693.25
2022-08-31T21:51:16.251Z,101676.81
2022-08-31T21:53:52.977Z,101690.69
2022-08-31T21:56:26.109Z,101700.13
2022-08-31T21:58:55.810Z,101700.09
2022-08-31T22:01:26.830Z,101701.78
2022-08-31T22:04:06.963Z,101701.91
2022-08-31T22:06:38.562Z,101700.94
2022-08-31T22:09:12.382Z,101692.97
2022-08-31T22:11:46.562Z,101691.22
2022-08-31T22:14:19.049Z,101711.00
2022-08-31T22:16:50.563Z,101698.09
2022-08-31T22:19:25.606Z,101710.25
2022-08-31T22:21:59.111Z,101704.25
2022-08-31T22:24:32.606Z,101714.63
2022-08-31T22:27:05.214Z,101712.88
2022-08-31T22:29:36.761Z,101712.06
2022-08-31T22:32:12.047Z,101700.91
2022-08-31T22:34:46.199Z,101710.31
2022-08-31T22:37:16.129Z,101726.69
2022-08-31T22:39:45.858Z,101721.53
2022-08-31T22:42:15.884Z,101722.34
2022-08-31T22:44:46.098Z,101716.22
2022-08-31T22:47:15.714Z,101718.66
2022-08-31T22:49:47.965Z,101721.25
2022-08-31T22:52:17.603Z,101722.81
2022-08-31T22:54:47.308Z,101704.63
2022-08-31T22:57:17.273Z,101736.53
2022-08-31T22:59:47.489Z,101680.34
2022-08-31T23:02:18.585Z,101713.09
2022-08-31T23:04:51.039Z,101730.38
2022-08-31T23:07:22.070Z,101727.75
2022-08-31T23:09:51.903Z,101700.03
2022-08-31T23:12:21.579Z,101700.06
2022-08-31T23:14:51.237Z,101728.50
2022-08-31T23:17:20.878Z,101737.13
2022-08-31T23:19:54.327Z,101734.44
2022-08-31T23:22:24.798Z,101723.13
2022-08-31T23:24:57.975Z,101710.19
2022-08-31T23:27:27.603Z,101703.25
2022-08-31T23:29:58.958Z,101718.81
2022-08-31T23:32:32.246Z,101710.97
2022-08-31T23:35:05.618Z,101674.47
2022-08-31T23:37:35.404Z,101708.19
2022-08-31T23:40:06.674Z,101707.16
2022-08-31T23:42:41.134Z,101709.59
2022-08-31T23:45:12.820Z,101684.53
2022-08-31T23:47:42.508Z,101670.63
2022-08-31T23:50:15.064Z,101712.97
2022-08-31T23:52:45.883Z,101695.50
2022-08-31T23:55:15.821Z,101700.72
2022-08-31T23:57:47.655Z,101709.44
